sensor_id;sensor_type;location;lat;lon;timestamp;P1;durP1;ratioP1;P2;durP2;ratioP2
69253;SDS011;56364;41.816;12.448;2023-09-19T00:00:49;11.57;;;5.25;;
69253;SDS011;56364;41.816;12.448;2023-09-19T00:03:37;9.40;;;4.57;;
69253;SDS011;56364;41.816;12.448;2023-09-19T00:06:05;11.50;;;4.78;;
69253;SDS011;56364;41.816;12.448;2023-09-19T00:08:33;13.93;;;4.93;;
69253;SDS011;56364;41.816;12.448;2023-09-19T00:10:59;11.23;;;4.88;;
69253;SDS011;56364;41.816;12.448;2023-09-19T00:13:31;11.95;;;5.10;;
69253;SDS011;56364;41.816;12.448;2023-09-19T00:15:58;14.10;;;5.28;;
69253;SDS011;56364;41.816;12.448;2023-09-19T00:18:25;15.38;;;5.32;;
69253;SDS011;56364;41.816;12.448;2023-09-19T00:20:59;17.63;;;5.47;;
69253;SDS011;56364;41.816;12.448;2023-09-19T00:23:25;12.07;;;4.80;;
69253;SDS011;56364;41.816;12.448;2023-09-19T00:25:52;10.27;;;4.40;;
69253;SDS011;56364;41.816;12.448;2023-09-19T00:28:22;10.27;;;4.85;;
69253;SDS011;56364;41.816;12.448;2023-09-19T00:30:48;13.27;;;4.47;;
69253;SDS011;56364;41.816;12.448;2023-09-19T00:33:15;8.52;;;4.07;;
69253;SDS011;56364;41.816;12.448;2023-09-19T00:35:51;13.02;;;4.53;;
69253;SDS011;56364;41.816;12.448;2023-09-19T00:38:17;16.27;;;4.28;;
69253;SDS011;56364;41.816;12.448;2023-09-19T00:40:47;9.38;;;3.97;;
69253;SDS011;56364;41.816;12.448;2023-09-19T00:43:15;9.77;;;4.07;;
69253;SDS011;56364;41.816;12.448;2023-09-19T00:45:42;10.07;;;3.70;;
69253;SDS011;56364;41.816;12.448;2023-09-19T00:48:10;10.52;;;4.43;;
69253;SDS011;56364;41.816;12.448;2023-09-19T00:50:39;10.93;;;4.32;;
69253;SDS011;56364;41.816;12.448;2023-09-19T00:53:08;8.27;;;4.78;;
69253;SDS011;56364;41.816;12.448;2023-09-19T00:55:42;9.18;;;4.30;;
69253;SDS011;56364;41.816;12.448;2023-09-19T00:58:09;11.57;;;4.25;;
69253;SDS011;56364;41.816;12.448;2023-09-19T01:00:36;12.70;;;4.63;;
69253;SDS011;56364;41.816;12.448;2023-09-19T01:03:05;14.82;;;4.70;;
69253;SDS011;56364;41.816;12.448;2023-09-19T01:05:31;15.18;;;4.15;;
69253;SDS011;56364;41.816;12.448;2023-09-19T01:07:59;10.57;;;4.10;;
69253;SDS011;56364;41.816;12.448;2023-09-19T01:10:26;7.68;;;3.83;;
69253;SDS011;56364;41.816;12.448;2023-09-19T01:15:26;10.50;;;4.00;;
69253;SDS011;56364;41.816;12.448;2023-09-19T01:18:00;11.25;;;3.80;;
69253;SDS011;56364;41.816;12.448;2023-09-19T01:23:11;16.65;;;4.07;;
69253;SDS011;56364;41.816;12.448;2023-09-19T01:26:03;7.82;;;3.70;;
69253;SDS011;56364;41.816;12.448;2023-09-19T01:28:45;8.75;;;3.58;;
69253;SDS011;56364;41.816;12.448;2023-09-19T01:31:19;11.25;;;3.90;;
69253;SDS011;56364;41.816;12.448;2023-09-19T01:34:06;10.68;;;4.13;;
69253;SDS011;56364;41.816;12.448;2023-09-19T01:36:33;7.88;;;4.05;;
69253;SDS011;56364;41.816;12.448;2023-09-19T01:39:01;7.53;;;3.65;;
69253;SDS011;56364;41.816;12.448;2023-09-19T01:41:44;9.65;;;3.63;;
69253;SDS011;56364;41.816;12.448;2023-09-19T01:44:17;9.68;;;4.07;;
69253;SDS011;56364;41.816;12.448;2023-09-19T01:46:45;13.13;;;4.55;;
69253;SDS011;56364;41.816;12.448;2023-09-19T01:49:22;12.70;;;4.25;;
69253;SDS011;56364;41.816;12.448;2023-09-19T01:51:55;17.35;;;4.28;;
69253;SDS011;56364;41.816;12.448;2023-09-19T01:54:26;8.18;;;4.70;;
69253;SDS011;56364;41.816;12.448;2023-09-19T01:59:25;9.48;;;3.80;;
69253;SDS011;56364;41.816;12.448;2023-09-19T02:01:54;9.90;;;3.92;;
69253;SDS011;56364;41.816;12.448;2023-09-19T02:04:28;9.50;;;4.28;;
69253;SDS011;56364;41.816;12.448;2023-09-19T02:06:57;9.50;;;4.28;;
69253;SDS011;56364;41.816;12.448;2023-09-19T02:09:29;12.88;;;4.22;;
69253;SDS011;56364;41.816;12.448;2023-09-19T02:11:58;9.75;;;4.45;;
69253;SDS011;56364;41.816;12.448;2023-09-19T02:14:25;10.63;;;4.45;;
69253;SDS011;56364;41.816;12.448;2023-09-19T02:16:52;14.65;;;4.80;;
69253;SDS011;56364;41.816;12.448;2023-09-19T02:19:18;9.00;;;4.45;;
69253;SDS011;56364;41.816;12.448;2023-09-19T02:21:46;10.00;;;4.80;;
69253;SDS011;56364;41.816;12.448;2023-09-19T02:24:13;8.23;;;4.32;;
69253;SDS011;56364;41.816;12.448;2023-09-19T02:26:40;12.60;;;4.72;;
69253;SDS011;56364;41.816;12.448;2023-09-19T02:29:06;12.85;;;4.63;;
69253;SDS011;56364;41.816;12.448;2023-09-19T02:31:32;13.52;;;5.10;;
69253;SDS011;56364;41.816;12.448;2023-09-19T02:33:58;12.38;;;4.72;;
69253;SDS011;56364;41.816;12.448;2023-09-19T02:36:25;11.75;;;4.78;;
69253;SDS011;56364;41.816;12.448;2023-09-19T02:38:51;12.73;;;4.82;;
69253;SDS011;56364;41.816;12.448;2023-09-19T02:41:18;13.60;;;4.97;;
69253;SDS011;56364;41.816;12.448;2023-09-19T02:43:44;7.43;;;4.10;;
69253;SDS011;56364;41.816;12.448;2023-09-19T02:46:12;9.82;;;4.22;;
69253;SDS011;56364;41.816;12.448;2023-09-19T02:48:38;8.65;;;4.13;;
69253;SDS011;56364;41.816;12.448;2023-09-19T02:51:04;9.15;;;4.50;;
69253;SDS011;56364;41.816;12.448;2023-09-19T02:53:30;9.45;;;4.70;;
69253;SDS011;56364;41.816;12.448;2023-09-19T02:55:57;11.55;;;4.57;;
69253;SDS011;56364;41.816;12.448;2023-09-19T02:58:24;9.15;;;4.55;;
69253;SDS011;56364;41.816;12.448;2023-09-19T03:00:50;9.10;;;4.97;;
69253;SDS011;56364;41.816;12.448;2023-09-19T03:03:19;10.48;;;4.55;;
69253;SDS011;56364;41.816;12.448;2023-09-19T03:05:45;17.55;;;4.68;;
69253;SDS011;56364;41.816;12.448;2023-09-19T03:08:13;9.90;;;4.60;;
69253;SDS011;56364;41.816;12.448;2023-09-19T03:10:41;10.48;;;4.50;;
69253;SDS011;56364;41.816;12.448;2023-09-19T03:13:08;8.95;;;4.53;;
69253;SDS011;56364;41.816;12.448;2023-09-19T03:15:35;11.65;;;5.15;;
69253;SDS011;56364;41.816;12.448;2023-09-19T03:18:04;10.30;;;4.78;;
69253;SDS011;56364;41.816;12.448;2023-09-19T03:20:33;10.90;;;4.88;;
69253;SDS011;56364;41.816;12.448;2023-09-19T03:23:03;15.23;;;5.03;;
69253;SDS011;56364;41.816;12.448;2023-09-19T03:25:31;12.88;;;4.60;;
69253;SDS011;56364;41.816;12.448;2023-09-19T03:27:57;15.40;;;4.80;;
69253;SDS011;56364;41.816;12.448;2023-09-19T03:30:26;10.45;;;4.80;;
69253;SDS011;56364;41.816;12.448;2023-09-19T03:32:52;13.45;;;4.85;;
69253;SDS011;56364;41.816;12.448;2023-09-19T03:35:18;10.30;;;5.15;;
69253;SDS011;56364;41.816;12.448;2023-09-19T03:37:44;10.70;;;4.95;;
69253;SDS011;56364;41.816;12.448;2023-09-19T03:40:13;8.55;;;4.72;;
69253;SDS011;56364;41.816;12.448;2023-09-19T03:42:41;11.38;;;4.80;;
69253;SDS011;56364;41.816;12.448;2023-09-19T03:45:09;13.10;;;4.70;;
69253;SDS011;56364;41.816;12.448;2023-09-19T03:47:40;13.43;;;5.05;;
69253;SDS011;56364;41.816;12.448;2023-09-19T03:50:06;15.60;;;5.53;;
69253;SDS011;56364;41.816;12.448;2023-09-19T03:52:36;11.05;;;5.07;;
69253;SDS011;56364;41.816;12.448;2023-09-19T03:55:02;18.75;;;5.35;;
69253;SDS011;56364;41.816;12.448;2023-09-19T03:57:29;11.18;;;4.55;;
69253;SDS011;56364;41.816;12.448;2023-09-19T03:59:55;14.02;;;5.32;;
69253;SDS011;56364;41.816;12.448;2023-09-19T04:02:21;13.02;;;5.40;;
69253;SDS011;56364;41.816;12.448;2023-09-19T04:04:51;11.77;;;5.38;;
69253;SDS011;56364;41.816;12.448;2023-09-19T04:07:17;16.27;;;4.93;;
69253;SDS011;56364;41.816;12.448;2023-09-19T04:09:44;15.55;;;4.90;;
69253;SDS011;56364;41.816;12.448;2023-09-19T04:12:11;10.55;;;4.80;;
69253;SDS011;56364;41.816;12.448;2023-09-19T04:14:37;16.00;;;5.63;;
69253;SDS011;56364;41.816;12.448;2023-09-19T04:17:04;12.68;;;4.40;;
69253;SDS011;56364;41.816;12.448;2023-09-19T04:19:30;8.30;;;4.72;;
69253;SDS011;56364;41.816;12.448;2023-09-19T04:21:56;14.30;;;5.53;;
69253;SDS011;56364;41.816;12.448;2023-09-19T04:24:22;9.07;;;4.68;;
69253;SDS011;56364;41.816;12.448;2023-09-19T04:26:48;11.85;;;4.75;;
69253;SDS011;56364;41.816;12.448;2023-09-19T04:29:14;9.18;;;5.18;;
69253;SDS011;56364;41.816;12.448;2023-09-19T04:31:40;17.17;;;5.22;;
69253;SDS011;56364;41.816;12.448;2023-09-19T04:34:10;13.73;;;5.15;;
69253;SDS011;56364;41.816;12.448;2023-09-19T04:36:42;11.43;;;4.47;;
69253;SDS011;56364;41.816;12.448;2023-09-19T04:39:08;13.48;;;5.30;;
69253;SDS011;56364;41.816;12.448;2023-09-19T04:41:36;11.02;;;5.10;;
69253;SDS011;56364;41.816;12.448;2023-09-19T04:44:05;10.73;;;4.55;;
69253;SDS011;56364;41.816;12.448;2023-09-19T04:46:31;12.75;;;4.78;;
69253;SDS011;56364;41.816;12.448;2023-09-19T04:48:57;14.23;;;4.72;;
69253;SDS011;56364;41.816;12.448;2023-09-19T04:51:23;12.50;;;5.47;;
69253;SDS011;56364;41.816;12.448;2023-09-19T04:53:51;12.38;;;5.13;;
69253;SDS011;56364;41.816;12.448;2023-09-19T04:56:17;11.27;;;5.35;;
69253;SDS011;56364;41.816;12.448;2023-09-19T04:58:44;13.07;;;5.40;;
69253;SDS011;56364;41.816;12.448;2023-09-19T05:01:10;13.73;;;5.82;;
69253;SDS011;56364;41.816;12.448;2023-09-19T05:03:37;13.13;;;5.55;;
69253;SDS011;56364;41.816;12.448;2023-09-19T05:06:04;14.95;;;5.35;;
69253;SDS011;56364;41.816;12.448;2023-09-19T05:08:30;11.60;;;5.05;;
69253;SDS011;56364;41.816;12.448;2023-09-19T05:10:56;17.67;;;5.47;;
69253;SDS011;56364;41.816;12.448;2023-09-19T05:13:26;9.68;;;5.40;;
69253;SDS011;56364;41.816;12.448;2023-09-19T05:15:52;13.85;;;5.70;;
69253;SDS011;56364;41.816;12.448;2023-09-19T05:18:18;11.15;;;5.70;;
69253;SDS011;56364;41.816;12.448;2023-09-19T05:20:44;11.35;;;5.55;;
69253;SDS011;56364;41.816;12.448;2023-09-19T05:23:10;17.23;;;5.70;;
69253;SDS011;56364;41.816;12.448;2023-09-19T05:26:05;15.63;;;5.40;;
69253;SDS011;56364;41.816;12.448;2023-09-19T05:28:34;13.23;;;5.80;;
69253;SDS011;56364;41.816;12.448;2023-09-19T05:31:06;29.52;;;7.63;;
69253;SDS011;56364;41.816;12.448;2023-09-19T05:33:34;20.38;;;6.28;;
69253;SDS011;56364;41.816;12.448;2023-09-19T05:36:06;13.23;;;5.72;;
69253;SDS011;56364;41.816;12.448;2023-09-19T05:38:34;14.60;;;5.20;;
69253;SDS011;56364;41.816;12.448;2023-09-19T05:41:03;18.60;;;5.35;;
69253;SDS011;56364;41.816;12.448;2023-09-19T05:43:34;15.57;;;5.32;;
69253;SDS011;56364;41.816;12.448;2023-09-19T05:46:08;15.82;;;4.93;;
69253;SDS011;56364;41.816;12.448;2023-09-19T05:48:34;20.88;;;5.63;;
69253;SDS011;56364;41.816;12.448;2023-09-19T05:51:04;12.40;;;5.10;;
69253;SDS011;56364;41.816;12.448;2023-09-19T05:56:05;17.77;;;5.28;;
69253;SDS011;56364;41.816;12.448;2023-09-19T05:58:51;12.70;;;5.50;;
69253;SDS011;56364;41.816;12.448;2023-09-19T06:01:18;21.83;;;5.85;;
69253;SDS011;56364;41.816;12.448;2023-09-19T06:03:44;15.45;;;5.75;;
69253;SDS011;56364;41.816;12.448;2023-09-19T06:24:46;22.58;;;6.53;;
69253;SDS011;56364;41.816;12.448;2023-09-19T06:27:12;16.20;;;5.72;;
69253;SDS011;56364;41.816;12.448;2023-09-19T06:29:38;12.88;;;5.75;;
69253;SDS011;56364;41.816;12.448;2023-09-19T06:32:08;10.30;;;4.97;;
69253;SDS011;56364;41.816;12.448;2023-09-19T06:34:35;11.50;;;5.35;;
69253;SDS011;56364;41.816;12.448;2023-09-19T06:37:01;18.10;;;5.40;;
69253;SDS011;56364;41.816;12.448;2023-09-19T06:39:40;17.50;;;5.50;;
69253;SDS011;56364;41.816;12.448;2023-09-19T06:42:14;13.25;;;5.57;;
69253;SDS011;56364;41.816;12.448;2023-09-19T06:44:49;9.18;;;4.65;;
69253;SDS011;56364;41.816;12.448;2023-09-19T06:47:30;20.60;;;5.70;;
69253;SDS011;56364;41.816;12.448;2023-09-19T06:50:00;12.40;;;4.80;;
69253;SDS011;56364;41.816;12.448;2023-09-19T06:55:18;15.45;;;5.03;;
69253;SDS011;56364;41.816;12.448;2023-09-19T06:58:04;18.50;;;6.07;;
69253;SDS011;56364;41.816;12.448;2023-09-19T07:03:02;15.85;;;5.80;;
69253;SDS011;56364;41.816;12.448;2023-09-19T07:05:37;14.18;;;5.80;;
69253;SDS011;56364;41.816;12.448;2023-09-19T07:13:36;12.88;;;4.70;;
69253;SDS011;56364;41.816;12.448;2023-09-19T07:16:05;14.38;;;4.68;;
69253;SDS011;56364;41.816;12.448;2023-09-19T07:18:37;10.32;;;4.88;;
69253;SDS011;56364;41.816;12.448;2023-09-19T07:21:05;15.50;;;4.72;;
69253;SDS011;56364;41.816;12.448;2023-09-19T07:23:31;13.15;;;4.82;;
69253;SDS011;56364;41.816;12.448;2023-09-19T07:26:00;25.45;;;5.50;;
69253;SDS011;56364;41.816;12.448;2023-09-19T07:28:26;17.90;;;4.85;;
69253;SDS011;56364;41.816;12.448;2023-09-19T07:30:53;12.43;;;4.32;;
69253;SDS011;56364;41.816;12.448;2023-09-19T07:33:20;12.00;;;4.50;;
69253;SDS011;56364;41.816;12.448;2023-09-19T07:35:46;12.75;;;4.40;;
69253;SDS011;56364;41.816;12.448;2023-09-19T07:38:15;12.57;;;4.28;;
69253;SDS011;56364;41.816;12.448;2023-09-19T07:40:45;9.27;;;4.50;;
69253;SDS011;56364;41.816;12.448;2023-09-19T07:43:11;10.82;;;4.50;;
69253;SDS011;56364;41.816;12.448;2023-09-19T07:45:37;9.60;;;4.18;;
69253;SDS011;56364;41.816;12.448;2023-09-19T07:48:03;9.05;;;4.25;;
69253;SDS011;56364;41.816;12.448;2023-09-19T07:50:34;10.25;;;4.53;;
69253;SDS011;56364;41.816;12.448;2023-09-19T07:53:03;18.20;;;4.63;;
69253;SDS011;56364;41.816;12.448;2023-09-19T07:55:30;11.45;;;4.25;;
69253;SDS011;56364;41.816;12.448;2023-09-19T07:57:58;12.73;;;4.43;;
69253;SDS011;56364;41.816;12.448;2023-09-19T08:00:25;10.80;;;3.85;;
69253;SDS011;56364;41.816;12.448;2023-09-19T08:02:51;10.73;;;3.92;;
69253;SDS011;56364;41.816;12.448;2023-09-19T08:05:17;10.73;;;4.13;;
69253;SDS011;56364;41.816;12.448;2023-09-19T08:07:44;12.30;;;4.38;;
69253;SDS011;56364;41.816;12.448;2023-09-19T08:10:13;12.98;;;3.90;;
69253;SDS011;56364;41.816;12.448;2023-09-19T08:12:41;9.35;;;4.22;;
69253;SDS011;56364;41.816;12.448;2023-09-19T08:15:18;15.88;;;3.85;;
69253;SDS011;56364;41.816;12.448;2023-09-19T08:17:45;10.35;;;3.72;;
69253;SDS011;56364;41.816;12.448;2023-09-19T08:20:12;10.90;;;4.22;;
69253;SDS011;56364;41.816;12.448;2023-09-19T08:22:53;13.32;;;4.88;;
69253;SDS011;56364;41.816;12.448;2023-09-19T08:25:23;9.15;;;3.70;;
69253;SDS011;56364;41.816;12.448;2023-09-19T08:27:54;9.70;;;4.22;;
69253;SDS011;56364;41.816;12.448;2023-09-19T08:30:23;16.42;;;4.20;;
69253;SDS011;56364;41.816;12.448;2023-09-19T08:32:59;12.57;;;4.07;;
69253;SDS011;56364;41.816;12.448;2023-09-19T08:35:25;17.20;;;5.03;;
69253;SDS011;56364;41.816;12.448;2023-09-19T08:37:51;12.85;;;3.88;;
69253;SDS011;56364;41.816;12.448;2023-09-19T08:40:18;11.77;;;3.30;;
69253;SDS011;56364;41.816;12.448;2023-09-19T08:42:48;13.98;;;3.40;;
69253;SDS011;56364;41.816;12.448;2023-09-19T08:45:15;9.90;;;3.15;;
69253;SDS011;56364;41.816;12.448;2023-09-19T08:47:50;12.88;;;3.40;;
69253;SDS011;56364;41.816;12.448;2023-09-19T08:50:25;8.52;;;2.83;;
69253;SDS011;56364;41.816;12.448;2023-09-19T08:52:53;13.65;;;3.33;;
69253;SDS011;56364;41.816;12.448;2023-09-19T08:55:23;12.20;;;3.03;;
69253;SDS011;56364;41.816;12.448;2023-09-19T08:57:51;8.43;;;3.10;;
69253;SDS011;56364;41.816;12.448;2023-09-19T09:00:21;9.88;;;3.63;;
69253;SDS011;56364;41.816;12.448;2023-09-19T09:03:09;12.80;;;3.83;;
69253;SDS011;56364;41.816;12.448;2023-09-19T09:05:35;14.60;;;3.30;;
69253;SDS011;56364;41.816;12.448;2023-09-19T09:08:01;11.55;;;3.15;;
69253;SDS011;56364;41.816;12.448;2023-09-19T09:10:28;7.35;;;2.70;;
69253;SDS011;56364;41.816;12.448;2023-09-19T09:12:55;12.70;;;3.05;;
69253;SDS011;56364;41.816;12.448;2023-09-19T09:15:21;10.23;;;2.78;;
69253;SDS011;56364;41.816;12.448;2023-09-19T09:17:48;6.45;;;2.88;;
69253;SDS011;56364;41.816;12.448;2023-09-19T09:20:17;10.20;;;2.95;;
69253;SDS011;56364;41.816;12.448;2023-09-19T09:22:53;6.88;;;2.08;;
69253;SDS011;56364;41.816;12.448;2023-09-19T09:25:53;10.75;;;2.25;;
69253;SDS011;56364;41.816;12.448;2023-09-19T09:28:23;7.18;;;2.30;;
69253;SDS011;56364;41.816;12.448;2023-09-19T09:30:50;6.53;;;2.17;;
69253;SDS011;56364;41.816;12.448;2023-09-19T09:33:16;11.30;;;2.65;;
69253;SDS011;56364;41.816;12.448;2023-09-19T09:35:49;10.25;;;2.30;;
69253;SDS011;56364;41.816;12.448;2023-09-19T09:38:17;12.52;;;2.20;;
69253;SDS011;56364;41.816;12.448;2023-09-19T09:40:47;9.40;;;2.33;;
69253;SDS011;56364;41.816;12.448;2023-09-19T09:43:30;10.73;;;2.50;;
69253;SDS011;56364;41.816;12.448;2023-09-19T09:46:13;8.07;;;2.08;;
69253;SDS011;56364;41.816;12.448;2023-09-19T09:48:46;8.38;;;2.28;;
69253;SDS011;56364;41.816;12.448;2023-09-19T09:51:32;10.35;;;2.08;;
69253;SDS011;56364;41.816;12.448;2023-09-19T09:54:17;7.15;;;2.90;;
69253;SDS011;56364;41.816;12.448;2023-09-19T09:56:51;8.82;;;2.70;;
69253;SDS011;56364;41.816;12.448;2023-09-19T10:01:49;10.45;;;2.40;;
69253;SDS011;56364;41.816;12.448;2023-09-19T10:04:27;9.02;;;2.13;;
69253;SDS011;56364;41.816;12.448;2023-09-19T10:07:01;16.48;;;2.95;;
69253;SDS011;56364;41.816;12.448;2023-09-19T10:09:44;6.97;;;1.48;;
69253;SDS011;56364;41.816;12.448;2023-09-19T10:12:12;9.35;;;2.60;;
69253;SDS011;56364;41.816;12.448;2023-09-19T10:14:38;8.98;;;2.35;;
69253;SDS011;56364;41.816;12.448;2023-09-19T10:17:09;15.63;;;3.28;;
69253;SDS011;56364;41.816;12.448;2023-09-19T10:19:42;12.25;;;2.75;;
69253;SDS011;56364;41.816;12.448;2023-09-19T10:22:11;13.48;;;2.65;;
69253;SDS011;56364;41.816;12.448;2023-09-19T10:24:40;7.70;;;2.88;;
69253;SDS011;56364;41.816;12.448;2023-09-19T10:27:06;7.45;;;2.42;;
69253;SDS011;56364;41.816;12.448;2023-09-19T10:29:36;8.15;;;2.53;;
69253;SDS011;56364;41.816;12.448;2023-09-19T10:32:05;8.45;;;2.13;;
69253;SDS011;56364;41.816;12.448;2023-09-19T10:34:34;5.60;;;2.08;;
69253;SDS011;56364;41.816;12.448;2023-09-19T10:37:01;9.82;;;2.05;;
69253;SDS011;56364;41.816;12.448;2023-09-19T10:39:31;12.00;;;2.30;;
69253;SDS011;56364;41.816;12.448;2023-09-19T10:41:57;11.75;;;2.40;;
69253;SDS011;56364;41.816;12.448;2023-09-19T10:44:30;9.15;;;2.40;;
69253;SDS011;56364;41.816;12.448;2023-09-19T10:46:57;6.47;;;2.38;;
69253;SDS011;56364;41.816;12.448;2023-09-19T10:49:24;7.25;;;2.80;;
69253;SDS011;56364;41.816;12.448;2023-09-19T10:51:54;5.57;;;1.80;;
69253;SDS011;56364;41.816;12.448;2023-09-19T10:54:24;5.72;;;2.63;;
69253;SDS011;56364;41.816;12.448;2023-09-19T10:56:52;9.50;;;2.30;;
69253;SDS011;56364;41.816;12.448;2023-09-19T10:59:20;14.90;;;2.88;;
69253;SDS011;56364;41.816;12.448;2023-09-19T11:01:47;8.38;;;2.63;;
69253;SDS011;56364;41.816;12.448;2023-09-19T11:04:35;7.20;;;2.38;;
69253;SDS011;56364;41.816;12.448;2023-09-19T11:07:02;10.45;;;2.15;;
69253;SDS011;56364;41.816;12.448;2023-09-19T11:09:51;11.18;;;2.25;;
69253;SDS011;56364;41.816;12.448;2023-09-19T11:18:00;3.15;;;1.33;;
69253;SDS011;56364;41.816;12.448;2023-09-19T11:20:29;9.65;;;2.22;;
69253;SDS011;56364;41.816;12.448;2023-09-19T11:25:42;9.15;;;2.38;;
69253;SDS011;56364;41.816;12.448;2023-09-19T11:28:32;3.83;;;1.92;;
69253;SDS011;56364;41.816;12.448;2023-09-19T11:30:58;9.02;;;2.50;;
69253;SDS011;56364;41.816;12.448;2023-09-19T11:49:15;15.13;;;2.60;;
69253;SDS011;56364;41.816;12.448;2023-09-19T11:51:46;9.30;;;2.03;;
69253;SDS011;56364;41.816;12.448;2023-09-19T11:54:13;7.40;;;2.55;;
69253;SDS011;56364;41.816;12.448;2023-09-19T11:56:43;13.88;;;2.55;;
69253;SDS011;56364;41.816;12.448;2023-09-19T11:59:10;9.35;;;2.65;;
69253;SDS011;56364;41.816;12.448;2023-09-19T12:01:37;6.10;;;2.30;;
69253;SDS011;56364;41.816;12.448;2023-09-19T12:04:05;10.43;;;3.10;;
69253;SDS011;56364;41.816;12.448;2023-09-19T12:12:49;9.68;;;2.58;;
69253;SDS011;56364;41.816;12.448;2023-09-19T12:15:22;7.70;;;2.53;;
69253;SDS011;56364;41.816;12.448;2023-09-19T12:17:53;6.97;;;2.10;;
69253;SDS011;56364;41.816;12.448;2023-09-19T12:20:20;9.15;;;2.20;;
69253;SDS011;56364;41.816;12.448;2023-09-19T12:22:49;8.32;;;2.30;;
69253;SDS011;56364;41.816;12.448;2023-09-19T12:25:43;9.82;;;2.10;;
69253;SDS011;56364;41.816;12.448;2023-09-19T12:28:12;14.07;;;2.42;;
69253;SDS011;56364;41.816;12.448;2023-09-19T12:30:38;7.43;;;2.47;;
69253;SDS011;56364;41.816;12.448;2023-09-19T12:33:19;9.68;;;3.13;;
69253;SDS011;56364;41.816;12.448;2023-09-19T12:35:48;10.55;;;1.95;;
69253;SDS011;56364;41.816;12.448;2023-09-19T12:38:26;11.23;;;2.40;;
69253;SDS011;56364;41.816;12.448;2023-09-19T12:41:01;4.68;;;1.73;;
69253;SDS011;56364;41.816;12.448;2023-09-19T12:43:30;7.22;;;2.08;;
69253;SDS011;56364;41.816;12.448;2023-09-19T12:51:37;8.45;;;2.28;;
69253;SDS011;56364;41.816;12.448;2023-09-19T12:56:30;10.02;;;2.60;;
69253;SDS011;56364;41.816;12.448;2023-09-19T12:59:18;8.32;;;2.22;;
69253;SDS011;56364;41.816;12.448;2023-09-19T13:02:02;4.38;;;1.60;;
69253;SDS011;56364;41.816;12.448;2023-09-19T13:07:05;11.35;;;1.88;;
69253;SDS011;56364;41.816;12.448;2023-09-19T13:09:35;11.65;;;2.17;;
69253;SDS011;56364;41.816;12.448;2023-09-19T13:15:12;6.85;;;1.85;;
69253;SDS011;56364;41.816;12.448;2023-09-19T13:17:43;11.10;;;2.70;;
69253;SDS011;56364;41.816;12.448;2023-09-19T13:20:26;9.23;;;1.85;;
69253;SDS011;56364;41.816;12.448;2023-09-19T13:22:58;7.75;;;1.70;;
69253;SDS011;56364;41.816;12.448;2023-09-19T13:25:35;10.60;;;2.22;;
69253;SDS011;56364;41.816;12.448;2023-09-19T13:28:01;6.35;;;1.90;;
69253;SDS011;56364;41.816;12.448;2023-09-19T13:30:30;9.00;;;1.75;;
69253;SDS011;56364;41.816;12.448;2023-09-19T13:33:06;9.23;;;2.00;;
69253;SDS011;56364;41.816;12.448;2023-09-19T13:35:32;10.13;;;1.73;;
69253;SDS011;56364;41.816;12.448;2023-09-19T13:37:59;10.13;;;2.25;;
69253;SDS011;56364;41.816;12.448;2023-09-19T13:40:26;5.32;;;1.60;;
69253;SDS011;56364;41.816;12.448;2023-09-19T14:06:00;4.47;;;1.42;;
69253;SDS011;56364;41.816;12.448;2023-09-19T14:08:26;9.98;;;1.98;;
69253;SDS011;56364;41.816;12.448;2023-09-19T14:10:52;9.35;;;1.80;;
69253;SDS011;56364;41.816;12.448;2023-09-19T14:13:19;10.05;;;1.80;;
69253;SDS011;56364;41.816;12.448;2023-09-19T14:15:45;6.18;;;1.60;;
69253;SDS011;56364;41.816;12.448;2023-09-19T14:18:11;9.00;;;2.03;;
69253;SDS011;56364;41.816;12.448;2023-09-19T14:20:38;6.90;;;1.80;;
69253;SDS011;56364;41.816;12.448;2023-09-19T14:23:08;7.38;;;1.92;;
69253;SDS011;56364;41.816;12.448;2023-09-19T14:25:34;8.73;;;1.52;;
69253;SDS011;56364;41.816;12.448;2023-09-19T14:28:01;10.05;;;2.90;;
69253;SDS011;56364;41.816;12.448;2023-09-19T14:30:27;3.72;;;1.38;;
69253;SDS011;56364;41.816;12.448;2023-09-19T14:35:40;11.23;;;1.95;;
69253;SDS011;56364;41.816;12.448;2023-09-19T14:38:07;12.43;;;2.88;;
69253;SDS011;56364;41.816;12.448;2023-09-19T14:40:33;9.75;;;3.10;;
69253;SDS011;56364;41.816;12.448;2023-09-19T14:43:01;12.48;;;1.70;;
69253;SDS011;56364;41.816;12.448;2023-09-19T14:50:34;13.38;;;2.10;;
69253;SDS011;56364;41.816;12.448;2023-09-19T14:53:00;6.28;;;1.80;;
69253;SDS011;56364;41.816;12.448;2023-09-19T14:55:27;8.52;;;2.08;;
69253;SDS011;56364;41.816;12.448;2023-09-19T14:57:54;6.40;;;1.60;;
69253;SDS011;56364;41.816;12.448;2023-09-19T15:00:23;8.35;;;1.70;;
69253;SDS011;56364;41.816;12.448;2023-09-19T15:05:25;13.13;;;2.25;;
69253;SDS011;56364;41.816;12.448;2023-09-19T15:07:51;13.43;;;1.75;;
69253;SDS011;56364;41.816;12.448;2023-09-19T15:10:23;11.35;;;1.85;;
69253;SDS011;56364;41.816;12.448;2023-09-19T15:12:49;10.00;;;2.05;;
69253;SDS011;56364;41.816;12.448;2023-09-19T15:15:15;12.35;;;2.33;;
69253;SDS011;56364;41.816;12.448;2023-09-19T15:17:42;10.05;;;2.15;;
69253;SDS011;56364;41.816;12.448;2023-09-19T15:20:09;8.05;;;2.20;;
69253;SDS011;56364;41.816;12.448;2023-09-19T15:22:38;8.13;;;1.42;;
69253;SDS011;56364;41.816;12.448;2023-09-19T15:25:07;6.00;;;1.83;;
69253;SDS011;56364;41.816;12.448;2023-09-19T15:27:34;10.38;;;1.50;;
69253;SDS011;56364;41.816;12.448;2023-09-19T15:30:11;11.88;;;2.15;;
69253;SDS011;56364;41.816;12.448;2023-09-19T15:35:13;12.10;;;2.78;;
69253;SDS011;56364;41.816;12.448;2023-09-19T15:37:42;7.72;;;1.52;;
69253;SDS011;56364;41.816;12.448;2023-09-19T15:40:08;13.90;;;2.13;;
69253;SDS011;56364;41.816;12.448;2023-09-19T15:45:15;13.25;;;1.75;;
69253;SDS011;56364;41.816;12.448;2023-09-19T15:47:42;11.18;;;2.40;;
69253;SDS011;56364;41.816;12.448;2023-09-19T15:50:09;7.00;;;1.48;;
69253;SDS011;56364;41.816;12.448;2023-09-19T15:52:38;8.18;;;2.13;;
69253;SDS011;56364;41.816;12.448;2023-09-19T15:55:05;8.25;;;2.20;;
69253;SDS011;56364;41.816;12.448;2023-09-19T15:57:38;8.25;;;2.00;;
69253;SDS011;56364;41.816;12.448;2023-09-19T16:00:05;8.13;;;2.10;;
69253;SDS011;56364;41.816;12.448;2023-09-19T16:02:51;12.82;;;1.75;;
69253;SDS011;56364;41.816;12.448;2023-09-19T16:16:01;11.18;;;2.00;;
69253;SDS011;56364;41.816;12.448;2023-09-19T16:18:27;14.80;;;2.33;;
69253;SDS011;56364;41.816;12.448;2023-09-19T16:21:14;8.63;;;2.10;;
69253;SDS011;56364;41.816;12.448;2023-09-19T16:24:06;10.38;;;1.90;;
69253;SDS011;56364;41.816;12.448;2023-09-19T16:44:37;8.52;;;2.00;;
69253;SDS011;56364;41.816;12.448;2023-09-19T16:47:04;9.95;;;1.63;;
69253;SDS011;56364;41.816;12.448;2023-09-19T16:49:30;8.30;;;2.03;;
69253;SDS011;56364;41.816;12.448;2023-09-19T16:51:56;7.47;;;2.25;;
69253;SDS011;56364;41.816;12.448;2023-09-19T16:54:22;9.48;;;1.55;;
69253;SDS011;56364;41.816;12.448;2023-09-19T16:56:48;11.85;;;2.53;;
69253;SDS011;56364;41.816;12.448;2023-09-19T16:59:14;9.68;;;2.20;;
69253;SDS011;56364;41.816;12.448;2023-09-19T17:01:41;9.43;;;2.30;;
69253;SDS011;56364;41.816;12.448;2023-09-19T17:07:07;15.43;;;2.30;;
69253;SDS011;56364;41.816;12.448;2023-09-19T17:09:34;13.63;;;2.03;;
69253;SDS011;56364;41.816;12.448;2023-09-19T17:12:00;15.35;;;2.25;;
69253;SDS011;56364;41.816;12.448;2023-09-19T17:17:10;14.93;;;1.88;;
69253;SDS011;56364;41.816;12.448;2023-09-19T17:27:29;12.02;;;2.70;;